Aurora Australis — VNAA — position and weather

sailwx.info

Track history (hours):
 
Tides and Currents Weather Stations Pressure Air Temp Water Temp Dewpoint Dewpoint Depression Visibility Wind Speed Wind Dir Waves Ship Positions

Oceanographic research ship Aurora Australis (Australia)

Detailed information on ship capabilities available from University of Delaware's Ocean Information Center.

Last reported at 2014-Dec-06 14:24 UTC. Time now 2014-Dec-23 00:55 UTC.
Position S 47°01' E 142°18'.
Warning: this ship's position is 16 days out of date.

Length 94.9 m; beam 20.3 m; draft 7.9 m.

Type: Ship. MMSI: 503043000.

Date/timePositionNaut miles runAvg speedWind from/ knotsBaromVisibWave heightAir tempDewpointWater temp
2014-Dec-06 14:24S 47°01' E 142°18'1312.2
2014-Dec-06 13:18S 46°52' E 142°32'1513.0
2014-Dec-06 12:09S 46°41' E 142°48'812.7
2014-Dec-06 11:33S 46°36' E 142°56'1713.1
2014-Dec-06 10:14S 46°24' E 143°14'912.8
2014-Dec-06 09:33S 46°18' E 143°23'1812.7
2014-Dec-06 08:08S 46°05' E 143°41'1519.9
2014-Dec-06 07:21S 45°55' E 143°57'7 6.4
2014-Dec-06 06:18S 45°50' E 144°04'1312.7
2014-Dec-06 05:16S 45°41' E 144°18'1112.7
2014-Dec-06 04:23S 45°33' E 144°30'2318.6
2014-Dec-06 03:09S 45°16' E 144°52'5 7.1
2014-Dec-06 02:31S 45°13' E 144°57'3415.4
2014-Dec-06 00:17S 44°49' E 145°31'7 6.3
2014-Dec-05 23:11S 44°44' E 145°38'2012.3
2014-Dec-05 21:32S 44°30' E 145°59'6612.2
2014-Dec-05 16:08S 43°45' E 147°04'6 8.1
2014-Dec-05 15:23S 43°41' E 147°11'1111.9
2014-Dec-05 14:29S 43°33' E 147°21'1313.2
2014-Dec-05 13:32S 43°21' E 147°27'1211.8
2014-Dec-05 12:29S 43°09' E 147°27'9 8.8
2014-Dec-05 11:27S 43°00' E 147°23'8 7.6
2014-Dec-05 10:23S 42°52' E 147°21'2 1.5
2014-Dec-05 09:20S 42°51' E 147°20'0 0.0
2014-Dec-05 08:19S 42°51' E 147°20'0 0.0
2014-Dec-05 07:19S 42°51' E 147°20'0 0.0
2014-Dec-05 06:22S 42°51' E 147°20'0 0.0
2014-Dec-05 05:21S 42°51' E 147°20'0 0.0
2014-Dec-05 04:28S 42°51' E 147°20'0 0.0
2014-Dec-05 03:22S 42°51' E 147°20'2 2.6
2014-Dec-05 02:28S 42°53' E 147°20'0 0.0
2014-Dec-05 01:21S 42°53' E 147°20'0 0.0
2014-Dec-05 00:27S 42°53' E 147°20'0 0.0
2014-Dec-04 23:27S 42°53' E 147°20'0 0.0
2014-Dec-04 22:31S 42°53' E 147°20'0 0.0
2014-Dec-04 21:21S 42°53' E 147°20'0 0.0
2014-Dec-04 20:30S 42°53' E 147°20'0 0.0
2014-Dec-04 19:30S 42°53' E 147°20'0 0.0
2014-Dec-04 18:21S 42°53' E 147°20'0 0.0
2014-Dec-04 17:27S 42°53' E 147°20'0 0.0
2014-Dec-04 16:31S 42°53' E 147°20'0 0.0
2014-Dec-04 15:24S 42°53' E 147°20'0 0.0
2014-Dec-04 14:21S 42°53' E 147°20'0 0.0
2014-Dec-04 13:30S 42°53' E 147°20'0 0.0
2014-Dec-04 12:27S 42°53' E 147°20'0 0.0
2014-Dec-04 11:30S 42°53' E 147°20'0 0.0
2014-Dec-04 10:27S 42°53' E 147°20'0 0.0
2014-Dec-04 09:33S 42°53' E 147°20'0 0.0
2014-Dec-04 08:33S 42°53' E 147°20'0 0.0
2014-Dec-04 07:33S 42°53' E 147°20'0 0.0
2014-Dec-04 06:33S 42°53' E 147°20'0 0.0
2014-Dec-04 05:30S 42°53' E 147°20'0 0.0
2014-Dec-04 04:30S 42°53' E 147°20'0 0.0
2014-Dec-04 03:24S 42°53' E 147°20'0 0.0
2014-Dec-04 02:31S 42°53' E 147°20'0 0.0
2014-Dec-04 01:27S 42°53' E 147°20'0 0.0
2014-Dec-04 00:30S 42°53' E 147°20'0 0.0
2014-Dec-03 23:30S 42°53' E 147°20'0 0.0
2014-Dec-03 22:33S 42°53' E 147°20'0 0.0
2014-Dec-03 21:21S 42°53' E 147°20'0 0.1
2014-Dec-03 20:33S 42°53' E 147°20'0 0.0
2014-Dec-03 19:30S 42°53' E 147°20'0 0.0
2014-Dec-03 18:33S 42°53' E 147°20'0 0.0
2014-Dec-03 17:27S 42°53' E 147°20'0 0.0
2014-Dec-03 16:33S 42°53' E 147°20'0 0.0
2014-Dec-03 15:24S 42°53' E 147°20'0 0.1
2014-Dec-03 14:33S 42°53' E 147°20'0 0.0
2014-Dec-03 13:24S 42°53' E 147°20'0 0.0
2014-Dec-03 12:30S 42°53' E 147°20'0 0.0
2014-Dec-03 11:33S 42°53' E 147°20'0 0.0
2014-Dec-03 10:24S 42°53' E 147°20'0 0.1
2014-Dec-03 09:33S 42°53' E 147°20'0 0.0
2014-Dec-03 08:29S 42°53' E 147°20'0 0.0
2014-Dec-03 07:33S 42°53' E 147°20'0 0.0
2014-Dec-03 06:21S 42°53' E 147°20'0 0.1
2014-Dec-03 05:30S 42°53' E 147°20'0 0.0
2014-Dec-03 04:24S 42°53' E 147°20'0 0.1
2014-Dec-03 03:33S 42°53' E 147°20'0 0.0
2014-Dec-03 02:27S 42°53' E 147°20'0 0.0
2014-Dec-03 01:31S 42°53' E 147°20'0 0.0
2014-Dec-03 00:24S 42°53' E 147°20'0 0.0
2014-Dec-02 23:24S 42°53' E 147°20'0 0.1
2014-Dec-02 22:33S 42°53' E 147°20'0 0.0
2014-Dec-02 21:18S 42°53' E 147°20'0 0.0
2014-Dec-02 20:24S 42°53' E 147°20'0 0.1
2014-Dec-02 19:33S 42°53' E 147°20'2 2.1
2014-Dec-02 18:28S 42°51' E 147°20'0 0.0
2014-Dec-02 17:06S 42°51' E 147°20'0 0.0
2014-Dec-02 16:21S 42°51' E 147°20'0 0.1
2014-Dec-02 15:29S 42°51' E 147°20'0 0.0
2014-Dec-02 14:33S 42°51' E 147°20'0 0.0
2014-Dec-02 13:30S 42°51' E 147°20'0 0.0
2014-Dec-02 12:33S 42°51' E 147°20'0 0.0
2014-Dec-02 11:24S 42°51' E 147°20'0 0.0
2014-Dec-02 10:24S 42°51' E 147°20'0 0.0
2014-Dec-02 09:30S 42°51' E 147°20'0 0.0
2014-Dec-02 08:24S 42°51' E 147°20'0 0.0
2014-Dec-02 07:30S 42°51' E 147°20'0 0.0
2014-Dec-02 06:33S 42°51' E 147°20'0 0.0
2014-Dec-02 05:33S 42°51' E 147°20'0 0.0
2014-Dec-02 04:27S 42°51' E 147°20'0 0.0
2014-Dec-02 03:18S 42°51' E 147°20'0 0.1
2014-Dec-02 02:31S 42°51' E 147°20'0 0.0
2014-Dec-02 01:27S 42°51' E 147°20'0 0.0
2014-Dec-02 00:18S 42°51' E 147°20'0 0.0
2014-Dec-01 23:24S 42°51' E 147°20'0 0.0
2014-Dec-01 22:27S 42°51' E 147°20'0 0.0
2014-Dec-01 21:30S 42°51' E 147°20'0 0.0
2014-Dec-01 20:28S 42°51' E 147°20'0 0.0
2014-Dec-01 19:24S 42°51' E 147°20'2 2.6
2014-Dec-01 18:30S 42°53' E 147°20'0 0.0
2014-Dec-01 17:24S 42°53' E 147°20'0 0.0
2014-Dec-01 16:26S 42°53' E 147°20'0 0.0
2014-Dec-01 15:23S 42°53' E 147°20'0 0.0
2014-Dec-01 14:32S 42°53' E 147°20'0 0.0
2014-Dec-01 13:23S 42°53' E 147°20'0 0.0
2014-Dec-01 12:29S 42°53' E 147°20'0 0.0
2014-Dec-01 11:20S 42°53' E 147°20'0 0.0
2014-Dec-01 10:31S 42°53' E 147°20'0 0.0
2014-Dec-01 09:23S 42°53' E 147°20'0 0.0
2014-Dec-01 08:32S 42°53' E 147°20'0 0.0
2014-Dec-01 07:15S 42°53' E 147°20'0 0.1
2014-Dec-01 06:31S 42°53' E 147°20'0 0.0
2014-Dec-01 05:29S 42°53' E 147°20'0 0.0
2014-Dec-01 04:20S 42°53' E 147°20'0 0.0
2014-Dec-01 03:26S 42°53' E 147°20'0 0.0
2014-Dec-01 02:21S 42°53' E 147°20'0 0.0
2014-Dec-01 01:30S 42°53' E 147°20'0 0.0
2014-Dec-01 00:29S 42°53' E 147°20'0 0.0
2014-Nov-30 23:33S 42°53' E 147°20'0 0.0
2014-Nov-30 22:32S 42°53' E 147°20'0 0.0
2014-Nov-30 21:27S 42°53' E 147°20'0 0.0
2014-Nov-30 20:30S 42°53' E 147°20'0 0.0
2014-Nov-30 19:21S 42°53' E 147°20'0 0.0
2014-Nov-30 18:30S 42°53' E 147°20'0 0.0
2014-Nov-30 17:24S 42°53' E 147°20'0 0.0
2014-Nov-30 16:30S 42°53' E 147°20'0 0.0
2014-Nov-30 15:24S 42°53' E 147°20'0 0.0
2014-Nov-30 14:24S 42°53' E 147°20'0 0.0
2014-Nov-30 13:21S 42°53' E 147°20'0 0.0
2014-Nov-30 12:15S 42°53' E 147°20'0 0.0
2014-Nov-30 11:33S 42°53' E 147°20'0 0.0
2014-Nov-30 10:24S 42°53' E 147°20'0 0.0
2014-Nov-30 09:30S 42°53' E 147°20'0 0.0
2014-Nov-30 08:33S 42°53' E 147°20'0 0.0
2014-Nov-30 07:27S 42°53' E 147°20'0 0.0
2014-Nov-30 06:33S 42°53' E 147°20'0 0.0
2014-Nov-30 05:27S 42°53' E 147°20'0 0.0
2014-Nov-30 04:24S 42°53' E 147°20'0 0.1
2014-Nov-30 03:33S 42°53' E 147°20'0 0.0
2014-Nov-30 02:32S 42°53' E 147°20'0 0.0
2014-Nov-30 01:24S 42°53' E 147°20'0 0.0
2014-Nov-30 00:27S 42°53' E 147°20'0 0.0
2014-Nov-29 23:24S 42°53' E 147°20'0 0.0
2014-Nov-29 22:30S 42°53' E 147°20'0 0.0
2014-Nov-29 21:24S 42°53' E 147°20'0 0.0
2014-Nov-29 20:27S 42°53' E 147°20'0 0.0
2014-Nov-29 19:33S 42°53' E 147°20'0 0.0
2014-Nov-29 18:24S 42°53' E 147°20'0 0.0
2014-Nov-29 17:21S 42°53' E 147°20'0 0.0
2014-Nov-29 16:27S 42°53' E 147°20'0 0.0
2014-Nov-29 15:21S 42°53' E 147°20'0 0.1
2014-Nov-29 14:33S 42°53' E 147°20'0 0.0
2014-Nov-29 13:30S 42°53' E 147°20'0 0.0
2014-Nov-29 12:27S 42°53' E 147°20'0 0.0
2014-Nov-29 11:27S 42°53' E 147°20'0 0.0
2014-Nov-29 10:33S 42°53' E 147°20'0 0.0
2014-Nov-29 09:24S 42°53' E 147°20'0 0.0
2014-Nov-29 08:30S 42°53' E 147°20'0 0.0
2014-Nov-29 07:24S 42°53' E 147°20'0 0.1
2014-Nov-29 06:31S 42°53' E 147°20'0 0.0
2014-Nov-29 05:24S 42°53' E 147°20'0 0.0
2014-Nov-29 04:27S 42°53' E 147°20'0 0.0
2014-Nov-29 03:31S 42°53' E 147°20'0 0.0
2014-Nov-29 02:21S 42°53' E 147°20'0 0.0
2014-Nov-29 01:24S 42°53' E 147°20'0 0.0
2014-Nov-29 00:27S 42°53' E 147°20'0 0.0
2014-Nov-28 23:30S 42°53' E 147°20'0 0.0
2014-Nov-28 22:23S 42°53' E 147°20'0 0.0
2014-Nov-28 21:27S 42°53' E 147°20'0 0.0
2014-Nov-28 20:30S 42°53' E 147°20'0 0.0
2014-Nov-28 19:24S 42°53' E 147°20'0 0.0
2014-Nov-28 18:33S 42°53' E 147°20'0 0.0
2014-Nov-28 17:30S 42°53' E 147°20'0 0.0
2014-Nov-28 16:33S 42°53' E 147°20'0 0.0
2014-Nov-28 15:10S 42°53' E 147°20'0 0.0
2014-Nov-28 14:30S 42°53' E 147°20'0 0.0
2014-Nov-28 13:24S 42°53' E 147°20'0 0.1
2014-Nov-28 12:33S 42°53' E 147°20'0 0.0
2014-Nov-28 11:32S 42°53' E 147°20'0 0.0
2014-Nov-28 10:33S 42°53' E 147°20'0 0.0
2014-Nov-28 09:32S 42°53' E 147°20'0 0.0
2014-Nov-28 08:32S 42°53' E 147°20'0 0.0
2014-Nov-28 07:32S 42°53' E 147°20'0 0.0
2014-Nov-28 06:33S 42°53' E 147°20'0 0.0
2014-Nov-28 05:33S 42°53' E 147°20'0 0.0
2014-Nov-28 04:33S 42°53' E 147°20'0 0.0
2014-Nov-28 03:26S 42°53' E 147°20'0 0.0
2014-Nov-28 02:32S 42°53' E 147°20'0 0.0
2014-Nov-28 01:33S 42°53' E 147°20'0 0.0
2014-Nov-28 00:32S 42°53' E 147°20'0 0.0
2014-Nov-27 23:33S 42°53' E 147°20'0 0.0
2014-Nov-27 22:33S 42°53' E 147°20'0 0.0
2014-Nov-27 21:32S 42°53' E 147°20'0 0.0
2014-Nov-27 20:33S 42°53' E 147°20'0 0.0
2014-Nov-27 19:33S 42°53' E 147°20'0 0.0
2014-Nov-27 18:33S 42°53' E 147°20'0 0.0
2014-Nov-27 17:32S 42°53' E 147°20'0 0.0
2014-Nov-27 16:33S 42°53' E 147°20'0 0.0
2014-Nov-27 15:32S 42°53' E 147°20'0 0.0
2014-Nov-27 14:32S 42°53' E 147°20'0 0.0
2014-Nov-27 13:31S 42°53' E 147°20'0 0.0
2014-Nov-27 12:32S 42°53' E 147°20'0 0.0
2014-Nov-27 11:33S 42°53' E 147°20'0 0.0
2014-Nov-27 10:30S 42°53' E 147°20'0 0.0
2014-Nov-27 09:32S 42°53' E 147°20'0 0.0
2014-Nov-27 08:33S 42°53' E 147°20'0 0.0
2014-Nov-27 07:33S 42°53' E 147°20'0 0.0
2014-Nov-27 06:32S 42°53' E 147°20'0 0.0
2014-Nov-27 05:32S 42°53' E 147°20'0 0.0
2014-Nov-27 04:33S 42°53' E 147°20'0 0.0
2014-Nov-27 03:30S 42°53' E 147°20'0 0.0
2014-Nov-27 02:33S 42°53' E 147°20'0 0.0
2014-Nov-27 01:32S 42°53' E 147°20'0 0.0
2014-Nov-27 00:33S 42°53' E 147°20'0 0.0
2014-Nov-26 23:32S 42°53' E 147°20'0 0.0
2014-Nov-26 22:32S 42°53' E 147°20'0 0.0
2014-Nov-26 21:33S 42°53' E 147°20'0 0.0
2014-Nov-26 20:32S 42°53' E 147°20'0 0.0
2014-Nov-26 19:32S 42°53' E 147°20'0 0.0
2014-Nov-26 18:32S 42°53' E 147°20'0 0.0
2014-Nov-26 17:33S 42°53' E 147°20'0 0.0
2014-Nov-26 16:32S 42°53' E 147°20'0 0.0
2014-Nov-26 15:33S 42°53' E 147°20'0 0.0
2014-Nov-26 14:32S 42°53' E 147°20'  
Track history (hours):
 
Tides and Currents Weather Stations Pressure Air Temp Water Temp Dewpoint Dewpoint Depression Visibility Wind Speed Wind Dir Waves Ship Positions

Oceanographic research ship Aurora Australis (Australia)

Detailed information on ship capabilities available from University of Delaware's Ocean Information Center.

Last reported at 2014-Dec-06 14:24 UTC. Time now 2014-Dec-23 00:55 UTC.
Position S 47°01' E 142°18'.
Warning: this ship's position is 16 days out of date.

Length 94.9 m; beam 20.3 m; draft 7.9 m.

Type: Ship. MMSI: 503043000.

Date/timePositionNaut miles runAvg speedWind from/ knotsBaromVisibWave heightAir tempDewpointWater temp
2014-Dec-06 14:24S 47°01' E 142°18'1312.2
2014-Dec-06 13:18S 46°52' E 142°32'1513.0
2014-Dec-06 12:09S 46°41' E 142°48'812.7
2014-Dec-06 11:33S 46°36' E 142°56'1713.1
2014-Dec-06 10:14S 46°24' E 143°14'912.8
2014-Dec-06 09:33S 46°18' E 143°23'1812.7
2014-Dec-06 08:08S 46°05' E 143°41'1519.9
2014-Dec-06 07:21S 45°55' E 143°57'7 6.4
2014-Dec-06 06:18S 45°50' E 144°04'1312.7
2014-Dec-06 05:16S 45°41' E 144°18'1112.7
2014-Dec-06 04:23S 45°33' E 144°30'2318.6
2014-Dec-06 03:09S 45°16' E 144°52'5 7.1
2014-Dec-06 02:31S 45°13' E 144°57'3415.4
2014-Dec-06 00:17S 44°49' E 145°31'7 6.3
2014-Dec-05 23:11S 44°44' E 145°38'2012.3
2014-Dec-05 21:32S 44°30' E 145°59'6612.2
2014-Dec-05 16:08S 43°45' E 147°04'6 8.1
2014-Dec-05 15:23S 43°41' E 147°11'1111.9
2014-Dec-05 14:29S 43°33' E 147°21'1313.2
2014-Dec-05 13:32S 43°21' E 147°27'1211.8
2014-Dec-05 12:29S 43°09' E 147°27'9 8.8
2014-Dec-05 11:27S 43°00' E 147°23'8 7.6
2014-Dec-05 10:23S 42°52' E 147°21'2 1.5
2014-Dec-05 09:20S 42°51' E 147°20'0 0.0
2014-Dec-05 08:19S 42°51' E 147°20'0 0.0
2014-Dec-05 07:19S 42°51' E 147°20'0 0.0
2014-Dec-05 06:22S 42°51' E 147°20'0 0.0
2014-Dec-05 05:21S 42°51' E 147°20'0 0.0
2014-Dec-05 04:28S 42°51' E 147°20'0 0.0
2014-Dec-05 03:22S 42°51' E 147°20'2 2.6
2014-Dec-05 02:28S 42°53' E 147°20'0 0.0
2014-Dec-05 01:21S 42°53' E 147°20'0 0.0
2014-Dec-05 00:27S 42°53' E 147°20'0 0.0
2014-Dec-04 23:27S 42°53' E 147°20'0 0.0
2014-Dec-04 22:31S 42°53' E 147°20'0 0.0
2014-Dec-04 21:21S 42°53' E 147°20'0 0.0
2014-Dec-04 20:30S 42°53' E 147°20'0 0.0
2014-Dec-04 19:30S 42°53' E 147°20'0 0.0
2014-Dec-04 18:21S 42°53' E 147°20'0 0.0
2014-Dec-04 17:27S 42°53' E 147°20'0 0.0
2014-Dec-04 16:31S 42°53' E 147°20'0 0.0
2014-Dec-04 15:24S 42°53' E 147°20'0 0.0
2014-Dec-04 14:21S 42°53' E 147°20'0 0.0
2014-Dec-04 13:30S 42°53' E 147°20'0 0.0
2014-Dec-04 12:27S 42°53' E 147°20'0 0.0
2014-Dec-04 11:30S 42°53' E 147°20'0 0.0
2014-Dec-04 10:27S 42°53' E 147°20'0 0.0
2014-Dec-04 09:33S 42°53' E 147°20'0 0.0
2014-Dec-04 08:33S 42°53' E 147°20'0 0.0
2014-Dec-04 07:33S 42°53' E 147°20'0 0.0
2014-Dec-04 06:33S 42°53' E 147°20'0 0.0
2014-Dec-04 05:30S 42°53' E 147°20'0 0.0
2014-Dec-04 04:30S 42°53' E 147°20'0 0.0
2014-Dec-04 03:24S 42°53' E 147°20'0 0.0
2014-Dec-04 02:31S 42°53' E 147°20'0 0.0
2014-Dec-04 01:27S 42°53' E 147°20'0 0.0
2014-Dec-04 00:30S 42°53' E 147°20'0 0.0
2014-Dec-03 23:30S 42°53' E 147°20'0 0.0
2014-Dec-03 22:33S 42°53' E 147°20'0 0.0
2014-Dec-03 21:21S 42°53' E 147°20'0 0.1
2014-Dec-03 20:33S 42°53' E 147°20'0 0.0
2014-Dec-03 19:30S 42°53' E 147°20'0 0.0
2014-Dec-03 18:33S 42°53' E 147°20'0 0.0
2014-Dec-03 17:27S 42°53' E 147°20'0 0.0
2014-Dec-03 16:33S 42°53' E 147°20'0 0.0
2014-Dec-03 15:24S 42°53' E 147°20'0 0.1
2014-Dec-03 14:33S 42°53' E 147°20'0 0.0
2014-Dec-03 13:24S 42°53' E 147°20'0 0.0
2014-Dec-03 12:30S 42°53' E 147°20'0 0.0
2014-Dec-03 11:33S 42°53' E 147°20'0 0.0
2014-Dec-03 10:24S 42°53' E 147°20'0 0.1
2014-Dec-03 09:33S 42°53' E 147°20'0 0.0
2014-Dec-03 08:29S 42°53' E 147°20'0 0.0
2014-Dec-03 07:33S 42°53' E 147°20'0 0.0
2014-Dec-03 06:21S 42°53' E 147°20'0 0.1
2014-Dec-03 05:30S 42°53' E 147°20'0 0.0
2014-Dec-03 04:24S 42°53' E 147°20'0 0.1
2014-Dec-03 03:33S 42°53' E 147°20'0 0.0
2014-Dec-03 02:27S 42°53' E 147°20'0 0.0
2014-Dec-03 01:31S 42°53' E 147°20'0 0.0
2014-Dec-03 00:24S 42°53' E 147°20'0 0.0
2014-Dec-02 23:24S 42°53' E 147°20'0 0.1
2014-Dec-02 22:33S 42°53' E 147°20'0 0.0
2014-Dec-02 21:18S 42°53' E 147°20'0 0.0
2014-Dec-02 20:24S 42°53' E 147°20'0 0.1
2014-Dec-02 19:33S 42°53' E 147°20'2 2.1
2014-Dec-02 18:28S 42°51' E 147°20'0 0.0
2014-Dec-02 17:06S 42°51' E 147°20'0 0.0
2014-Dec-02 16:21S 42°51' E 147°20'0 0.1
2014-Dec-02 15:29S 42°51' E 147°20'0 0.0
2014-Dec-02 14:33S 42°51' E 147°20'0 0.0
2014-Dec-02 13:30S 42°51' E 147°20'0 0.0
2014-Dec-02 12:33S 42°51' E 147°20'0 0.0
2014-Dec-02 11:24S 42°51' E 147°20'0 0.0
2014-Dec-02 10:24S 42°51' E 147°20'0 0.0
2014-Dec-02 09:30S 42°51' E 147°20'0 0.0
2014-Dec-02 08:24S 42°51' E 147°20'0 0.0
2014-Dec-02 07:30S 42°51' E 147°20'0 0.0
2014-Dec-02 06:33S 42°51' E 147°20'0 0.0
2014-Dec-02 05:33S 42°51' E 147°20'0 0.0
2014-Dec-02 04:27S 42°51' E 147°20'0 0.0
2014-Dec-02 03:18S 42°51' E 147°20'0 0.1
2014-Dec-02 02:31S 42°51' E 147°20'0 0.0
2014-Dec-02 01:27S 42°51' E 147°20'0 0.0
2014-Dec-02 00:18S 42°51' E 147°20'0 0.0
2014-Dec-01 23:24S 42°51' E 147°20'0 0.0
2014-Dec-01 22:27S 42°51' E 147°20'0 0.0
2014-Dec-01 21:30S 42°51' E 147°20'0 0.0
2014-Dec-01 20:28S 42°51' E 147°20'0 0.0
2014-Dec-01 19:24S 42°51' E 147°20'2 2.6
2014-Dec-01 18:30S 42°53' E 147°20'0 0.0
2014-Dec-01 17:24S 42°53' E 147°20'0 0.0
2014-Dec-01 16:26S 42°53' E 147°20'0 0.0
2014-Dec-01 15:23S 42°53' E 147°20'0 0.0
2014-Dec-01 14:32S 42°53' E 147°20'0 0.0
2014-Dec-01 13:23S 42°53' E 147°20'0 0.0
2014-Dec-01 12:29S 42°53' E 147°20'0 0.0
2014-Dec-01 11:20S 42°53' E 147°20'0 0.0
2014-Dec-01 10:31S 42°53' E 147°20'0 0.0
2014-Dec-01 09:23S 42°53' E 147°20'0 0.0
2014-Dec-01 08:32S 42°53' E 147°20'0 0.0
2014-Dec-01 07:15S 42°53' E 147°20'0 0.1
2014-Dec-01 06:31S 42°53' E 147°20'0 0.0
2014-Dec-01 05:29S 42°53' E 147°20'0 0.0
2014-Dec-01 04:20S 42°53' E 147°20'0 0.0
2014-Dec-01 03:26S 42°53' E 147°20'0 0.0
2014-Dec-01 02:21S 42°53' E 147°20'0 0.0
2014-Dec-01 01:30S 42°53' E 147°20'0 0.0
2014-Dec-01 00:29S 42°53' E 147°20'0 0.0
2014-Nov-30 23:33S 42°53' E 147°20'0 0.0
2014-Nov-30 22:32S 42°53' E 147°20'0 0.0
2014-Nov-30 21:27S 42°53' E 147°20'0 0.0
2014-Nov-30 20:30S 42°53' E 147°20'0 0.0
2014-Nov-30 19:21S 42°53' E 147°20'0 0.0
2014-Nov-30 18:30S 42°53' E 147°20'0 0.0
2014-Nov-30 17:24S 42°53' E 147°20'0 0.0
2014-Nov-30 16:30S 42°53' E 147°20'0 0.0
2014-Nov-30 15:24S 42°53' E 147°20'0 0.0
2014-Nov-30 14:24S 42°53' E 147°20'0 0.0
2014-Nov-30 13:21S 42°53' E 147°20'0 0.0
2014-Nov-30 12:15S 42°53' E 147°20'0 0.0
2014-Nov-30 11:33S 42°53' E 147°20'0 0.0
2014-Nov-30 10:24S 42°53' E 147°20'0 0.0
2014-Nov-30 09:30S 42°53' E 147°20'0 0.0
2014-Nov-30 08:33S 42°53' E 147°20'0 0.0
2014-Nov-30 07:27S 42°53' E 147°20'0 0.0
2014-Nov-30 06:33S 42°53' E 147°20'0 0.0
2014-Nov-30 05:27S 42°53' E 147°20'0 0.0
2014-Nov-30 04:24S 42°53' E 147°20'0 0.1
2014-Nov-30 03:33S 42°53' E 147°20'0 0.0
2014-Nov-30 02:32S 42°53' E 147°20'0 0.0
2014-Nov-30 01:24S 42°53' E 147°20'0 0.0
2014-Nov-30 00:27S 42°53' E 147°20'0 0.0
2014-Nov-29 23:24S 42°53' E 147°20'0 0.0
2014-Nov-29 22:30S 42°53' E 147°20'0 0.0
2014-Nov-29 21:24S 42°53' E 147°20'0 0.0
2014-Nov-29 20:27S 42°53' E 147°20'0 0.0
2014-Nov-29 19:33S 42°53' E 147°20'0 0.0
2014-Nov-29 18:24S 42°53' E 147°20'0 0.0
2014-Nov-29 17:21S 42°53' E 147°20'0 0.0
2014-Nov-29 16:27S 42°53' E 147°20'0 0.0
2014-Nov-29 15:21S 42°53' E 147°20'0 0.1
2014-Nov-29 14:33S 42°53' E 147°20'0 0.0
2014-Nov-29 13:30S 42°53' E 147°20'0 0.0
2014-Nov-29 12:27S 42°53' E 147°20'0 0.0
2014-Nov-29 11:27S 42°53' E 147°20'0 0.0
2014-Nov-29 10:33S 42°53' E 147°20'0 0.0
2014-Nov-29 09:24S 42°53' E 147°20'0 0.0
2014-Nov-29 08:30S 42°53' E 147°20'0 0.0
2014-Nov-29 07:24S 42°53' E 147°20'0 0.1
2014-Nov-29 06:31S 42°53' E 147°20'0 0.0
2014-Nov-29 05:24S 42°53' E 147°20'0 0.0
2014-Nov-29 04:27S 42°53' E 147°20'0 0.0
2014-Nov-29 03:31S 42°53' E 147°20'0 0.0
2014-Nov-29 02:21S 42°53' E 147°20'0 0.0
2014-Nov-29 01:24S 42°53' E 147°20'0 0.0
2014-Nov-29 00:27S 42°53' E 147°20'0 0.0
2014-Nov-28 23:30S 42°53' E 147°20'0 0.0
2014-Nov-28 22:23S 42°53' E 147°20'0 0.0
2014-Nov-28 21:27S 42°53' E 147°20'0 0.0
2014-Nov-28 20:30S 42°53' E 147°20'0 0.0
2014-Nov-28 19:24S 42°53' E 147°20'0 0.0
2014-Nov-28 18:33S 42°53' E 147°20'0 0.0
2014-Nov-28 17:30S 42°53' E 147°20'0 0.0
2014-Nov-28 16:33S 42°53' E 147°20'0 0.0
2014-Nov-28 15:10S 42°53' E 147°20'0 0.0
2014-Nov-28 14:30S 42°53' E 147°20'0 0.0
2014-Nov-28 13:24S 42°53' E 147°20'0 0.1
2014-Nov-28 12:33S 42°53' E 147°20'0 0.0
2014-Nov-28 11:32S 42°53' E 147°20'0 0.0
2014-Nov-28 10:33S 42°53' E 147°20'0 0.0
2014-Nov-28 09:32S 42°53' E 147°20'0 0.0
2014-Nov-28 08:32S 42°53' E 147°20'0 0.0
2014-Nov-28 07:32S 42°53' E 147°20'0 0.0
2014-Nov-28 06:33S 42°53' E 147°20'0 0.0
2014-Nov-28 05:33S 42°53' E 147°20'0 0.0
2014-Nov-28 04:33S 42°53' E 147°20'0 0.0
2014-Nov-28 03:26S 42°53' E 147°20'0 0.0
2014-Nov-28 02:32S 42°53' E 147°20'0 0.0
2014-Nov-28 01:33S 42°53' E 147°20'0 0.0
2014-Nov-28 00:32S 42°53' E 147°20'0 0.0
2014-Nov-27 23:33S 42°53' E 147°20'0 0.0
2014-Nov-27 22:33S 42°53' E 147°20'0 0.0
2014-Nov-27 21:32S 42°53' E 147°20'0 0.0
2014-Nov-27 20:33S 42°53' E 147°20'0 0.0
2014-Nov-27 19:33S 42°53' E 147°20'0 0.0
2014-Nov-27 18:33S 42°53' E 147°20'0 0.0
2014-Nov-27 17:32S 42°53' E 147°20'0 0.0
2014-Nov-27 16:33S 42°53' E 147°20'0 0.0
2014-Nov-27 15:32S 42°53' E 147°20'0 0.0
2014-Nov-27 14:32S 42°53' E 147°20'0 0.0
2014-Nov-27 13:31S 42°53' E 147°20'0 0.0
2014-Nov-27 12:32S 42°53' E 147°20'0 0.0
2014-Nov-27 11:33S 42°53' E 147°20'0 0.0
2014-Nov-27 10:30S 42°53' E 147°20'0 0.0
2014-Nov-27 09:32S 42°53' E 147°20'0 0.0
2014-Nov-27 08:33S 42°53' E 147°20'0 0.0
2014-Nov-27 07:33S 42°53' E 147°20'0 0.0
2014-Nov-27 06:32S 42°53' E 147°20'0 0.0
2014-Nov-27 05:32S 42°53' E 147°20'0 0.0
2014-Nov-27 04:33S 42°53' E 147°20'0 0.0
2014-Nov-27 03:30S 42°53' E 147°20'0 0.0
2014-Nov-27 02:33S 42°53' E 147°20'0 0.0
2014-Nov-27 01:32S 42°53' E 147°20'0 0.0
2014-Nov-27 00:33S 42°53' E 147°20'0 0.0
2014-Nov-26 23:32S 42°53' E 147°20'0 0.0
2014-Nov-26 22:32S 42°53' E 147°20'0 0.0
2014-Nov-26 21:33S 42°53' E 147°20'0 0.0
2014-Nov-26 20:32S 42°53' E 147°20'0 0.0
2014-Nov-26 19:32S 42°53' E 147°20'0 0.0
2014-Nov-26 18:32S 42°53' E 147°20'0 0.0
2014-Nov-26 17:33S 42°53' E 147°20'0 0.0
2014-Nov-26 16:32S 42°53' E 147°20'0 0.0
2014-Nov-26 15:33S 42°53' E 147°20'0 0.0
2014-Nov-26 14:32S 42°53' E 147°20'  

Dump ship's entire track history